createdAt,value
2023-05-25T00:01:44.215Z,22.27
2023-05-25T00:06:43.056Z,22.22
2023-05-25T00:11:41.940Z,22.16
2023-05-25T00:16:42.139Z,22.08
2023-05-25T00:21:41.568Z,21.98
2023-05-25T00:26:40.391Z,21.81
2023-05-25T00:31:39.366Z,21.68
2023-05-25T00:36:39.537Z,21.59
2023-05-25T00:41:41.708Z,21.54
2023-05-25T00:46:41.574Z,21.50
2023-05-25T00:51:42.155Z,21.52
2023-05-25T00:56:43.684Z,21.51
2023-05-25T01:01:44.882Z,21.49
2023-05-25T01:06:49.998Z,21.39
2023-05-25T01:11:52.651Z,21.30
2023-05-25T01:16:51.919Z,21.12
2023-05-25T01:21:59.458Z,21.04
2023-05-25T01:27:03.095Z,21.00
2023-05-25T01:32:04.858Z,20.95
2023-05-25T01:37:07.842Z,20.86
2023-05-25T01:42:08.737Z,20.74
2023-05-25T01:47:15.736Z,20.67
2023-05-25T01:52:23.289Z,20.62
2023-05-25T01:57:23.427Z,20.58
2023-05-25T02:02:22.755Z,20.54
2023-05-25T02:07:24.519Z,20.48
2023-05-25T02:12:23.437Z,20.41
2023-05-25T02:17:22.319Z,20.32
2023-05-25T02:22:21.535Z,20.24
2023-05-25T02:27:21.803Z,20.18
2023-05-25T02:32:21.372Z,20.12
2023-05-25T02:37:20.325Z,20.08
2023-05-25T02:42:21.318Z,20.04
2023-05-25T02:47:20.581Z,20.02
2023-05-25T02:52:19.551Z,19.98
2023-05-25T02:57:18.384Z,19.93
2023-05-25T03:02:21.212Z,19.91
2023-05-25T03:07:20.637Z,19.91
2023-05-25T03:12:20.647Z,19.92
2023-05-25T03:17:20.929Z,19.92
2023-05-25T03:22:21.230Z,19.91
2023-05-25T03:27:20.264Z,19.90
2023-05-25T03:32:23.379Z,19.90
2023-05-25T03:37:22.351Z,19.90
2023-05-25T03:42:21.197Z,19.89
2023-05-25T03:47:21.591Z,19.93
2023-05-25T03:52:20.544Z,19.97
2023-05-25T03:57:19.371Z,19.96
2023-05-25T04:02:18.248Z,19.93
2023-05-25T04:07:18.809Z,19.94
2023-05-25T04:12:17.577Z,19.92
2023-05-25T04:17:17.554Z,19.95
2023-05-25T04:22:16.524Z,19.99
2023-05-25T04:27:17.744Z,20.01
2023-05-25T04:32:17.952Z,20.04
2023-05-25T04:37:37.232Z,20.09
2023-05-25T04:42:38.039Z,20.14
2023-05-25T04:47:41.394Z,20.20
2023-05-25T04:52:40.808Z,20.19
2023-05-25T04:57:43.379Z,20.27
2023-05-25T05:02:42.774Z,20.38
2023-05-25T05:07:41.872Z,20.38
2023-05-25T05:12:42.325Z,20.45
2023-05-25T05:17:41.902Z,20.44
2023-05-25T05:22:43.849Z,20.44
2023-05-25T05:27:44.349Z,20.65
2023-05-25T05:32:58.932Z,20.80
2023-05-25T05:38:03.870Z,20.96
2023-05-25T05:43:04.099Z,21.07
2023-05-25T05:48:04.748Z,21.10
2023-05-25T05:53:04.067Z,21.33
2023-05-25T05:58:04.202Z,21.37
2023-05-25T06:03:04.099Z,21.54
2023-05-25T06:08:05.649Z,21.56
2023-05-25T06:13:08.584Z,21.48
2023-05-25T06:18:07.944Z,21.50
2023-05-25T06:23:12.690Z,21.51
2023-05-25T06:28:13.011Z,21.63
2023-05-25T06:33:11.802Z,21.81
2023-05-25T06:38:11.669Z,21.80
2023-05-25T06:43:10.558Z,21.95
2023-05-25T06:48:31.396Z,22.06
2023-05-25T06:53:30.359Z,22.28
2023-05-25T06:58:29.132Z,22.31
2023-05-25T07:03:28.035Z,22.36
2023-05-25T07:08:28.337Z,22.58
2023-05-25T07:13:27.105Z,23.06
2023-05-25T07:18:27.732Z,23.32
2023-05-25T07:23:26.596Z,23.56
2023-05-25T07:28:26.802Z,24.00
2023-05-25T07:33:25.706Z,24.29
2023-05-25T07:38:24.754Z,24.58
2023-05-25T07:43:23.664Z,24.82
2023-05-25T07:48:24.062Z,25.03
2023-05-25T07:53:22.924Z,25.22
2023-05-25T07:58:21.850Z,25.45
2023-05-25T08:03:31.703Z,25.61
2023-05-25T08:08:36.523Z,25.86
2023-05-25T08:13:35.406Z,26.03
2023-05-25T08:18:34.205Z,26.33
2023-05-25T08:23:33.234Z,26.72
2023-05-25T08:28:33.426Z,27.18
2023-05-25T08:33:32.358Z,28.01
2023-05-25T08:38:32.002Z,28.92
2023-05-25T08:43:31.039Z,29.81
2023-05-25T08:48:41.168Z,30.46
2023-05-25T08:53:42.654Z,31.42
2023-05-25T08:58:46.785Z,32.48
2023-05-25T09:03:48.253Z,33.14
2023-05-25T09:08:47.603Z,34.17
2023-05-25T09:13:46.561Z,35.00
2023-05-25T09:18:49.523Z,35.51
2023-05-25T09:23:51.176Z,36.25
2023-05-25T09:28:52.441Z,37.13
2023-05-25T09:33:55.601Z,37.33
2023-05-25T09:38:56.371Z,37.32
2023-05-25T09:44:09.635Z,37.57
2023-05-25T09:49:11.699Z,37.45
2023-05-25T09:54:12.021Z,38.18
2023-05-25T09:59:10.781Z,38.48
2023-05-25T10:04:11.035Z,39.22
2023-05-25T10:09:14.054Z,39.75
2023-05-25T10:14:17.311Z,40.07
2023-05-25T10:19:23.068Z,40.65
2023-05-25T10:24:28.650Z,40.86
2023-05-25T10:29:29.754Z,41.74
2023-05-25T10:34:31.053Z,42.39
2023-05-25T10:39:30.938Z,42.62
2023-05-25T10:44:30.642Z,43.30
2023-05-25T10:49:36.617Z,43.34
2023-05-25T10:54:36.899Z,43.27
2023-05-25T10:59:36.165Z,43.72
2023-05-25T11:04:37.725Z,44.51
2023-05-25T11:09:44.434Z,44.35
2023-05-25T11:14:44.872Z,44.92
2023-05-25T11:19:53.337Z,45.06
2023-05-25T11:25:00.053Z,45.31
2023-05-25T11:30:07.292Z,45.10
2023-05-25T11:35:12.030Z,45.22
2023-05-25T11:40:12.447Z,45.49
2023-05-25T11:45:12.964Z,45.58
2023-05-25T11:50:18.405Z,45.52
2023-05-25T11:55:17.212Z,45.53
2023-05-25T12:00:26.949Z,45.70
2023-05-25T12:05:29.094Z,44.63
2023-05-25T12:10:28.017Z,43.09
2023-05-25T12:15:28.578Z,42.09
2023-05-25T12:20:28.928Z,41.69
2023-05-25T12:25:38.639Z,41.37
2023-05-25T12:30:45.913Z,40.94
2023-05-25T12:35:50.078Z,40.36
2023-05-25T12:40:49.037Z,40.01
2023-05-25T12:45:47.968Z,39.76
2023-05-25T12:51:00.969Z,40.54
2023-05-25T12:56:03.720Z,41.63
2023-05-25T13:01:02.593Z,41.85
2023-05-25T13:06:03.824Z,41.61
2023-05-25T13:11:03.909Z,39.58
2023-05-25T13:16:02.830Z,38.87
2023-05-25T13:21:03.227Z,38.13
2023-05-25T13:26:02.131Z,37.16
2023-05-25T13:31:01.333Z,35.80
2023-05-25T13:36:08.180Z,34.95
2023-05-25T13:41:08.836Z,34.16
2023-05-25T13:46:08.821Z,33.72
2023-05-25T13:51:19.124Z,33.23
2023-05-25T13:56:19.463Z,32.91
2023-05-25T14:01:17.992Z,32.49
2023-05-25T14:06:16.747Z,32.02
2023-05-25T14:11:16.259Z,31.80
2023-05-25T14:16:17.840Z,31.72
2023-05-25T14:21:16.732Z,31.75
2023-05-25T14:26:15.527Z,31.65
2023-05-25T14:31:14.595Z,31.80
2023-05-25T14:36:15.034Z,31.85
2023-05-25T14:41:13.853Z,31.95
2023-05-25T14:46:12.601Z,31.74
2023-05-25T14:51:11.418Z,31.82
2023-05-25T14:56:11.702Z,31.37
2023-05-25T15:01:10.576Z,30.23
2023-05-25T15:06:09.614Z,29.59
2023-05-25T15:11:09.336Z,29.24
2023-05-25T15:16:12.416Z,28.48
2023-05-25T15:21:11.544Z,28.28
2023-05-25T15:26:11.733Z,28.34
2023-05-25T15:31:12.085Z,27.93
2023-05-25T15:36:13.555Z,27.67
2023-05-25T15:41:16.613Z,27.38
2023-05-25T15:46:16.815Z,27.27
2023-05-25T15:51:15.643Z,26.89
2023-05-25T15:56:14.479Z,26.94
2023-05-25T16:01:13.979Z,26.97
2023-05-25T16:06:17.636Z,27.38
2023-05-25T16:11:16.632Z,27.40
2023-05-25T16:16:15.519Z,27.55
2023-05-25T16:21:15.834Z,27.62
2023-05-25T16:26:14.632Z,27.08
2023-05-25T16:31:13.745Z,27.17
2023-05-25T16:36:13.628Z,26.93
2023-05-25T16:41:13.834Z,26.43
2023-05-25T16:46:12.787Z,26.67
2023-05-25T16:51:15.434Z,26.91
2023-05-25T16:56:15.616Z,26.99
2023-05-25T17:01:14.572Z,26.86
2023-05-25T17:06:13.365Z,26.66
2023-05-25T17:11:12.262Z,26.48
2023-05-25T17:16:12.509Z,26.27
2023-05-25T17:21:11.375Z,26.19
2023-05-25T17:26:10.142Z,26.00
2023-05-25T17:31:09.458Z,25.85
2023-05-25T17:36:09.976Z,25.66
2023-05-25T17:41:08.693Z,25.54
2023-05-25T17:46:07.762Z,25.29
2023-05-25T17:51:06.920Z,25.23
2023-05-25T17:56:07.328Z,25.09
2023-05-25T18:01:06.275Z,25.00
2023-05-25T18:06:05.502Z,24.89
2023-05-25T18:11:04.352Z,24.73
2023-05-25T18:16:04.526Z,24.57
2023-05-25T18:21:03.381Z,24.20
2023-05-25T18:26:02.145Z,24.12
2023-05-25T18:31:00.956Z,24.05
2023-05-25T18:36:01.201Z,23.86
2023-05-25T18:41:00.107Z,23.84
2023-05-25T18:45:59.044Z,23.76
2023-05-25T18:50:57.988Z,23.65
2023-05-25T18:55:58.321Z,23.65
2023-05-25T19:00:57.169Z,23.47
2023-05-25T19:05:56.060Z,23.32
2023-05-25T19:10:54.886Z,23.23
2023-05-25T19:15:55.221Z,23.28
2023-05-25T19:20:54.109Z,23.26
2023-05-25T19:25:52.911Z,23.16
2023-05-25T19:30:51.675Z,23.18
2023-05-25T19:35:51.886Z,23.12
2023-05-25T19:40:50.793Z,23.12
2023-05-25T19:45:49.861Z,23.08
2023-05-25T19:50:48.649Z,23.01
2023-05-25T19:55:48.899Z,22.99
2023-05-25T20:00:47.646Z,22.92
2023-05-25T20:05:47.397Z,22.82
2023-05-25T20:10:46.238Z,22.77
2023-05-25T20:15:46.706Z,22.64
2023-05-25T20:20:46.053Z,22.52
2023-05-25T20:25:45.206Z,22.50
2023-05-25T20:30:44.376Z,22.47
2023-05-25T20:35:44.702Z,22.51
2023-05-25T20:40:43.618Z,22.50
2023-05-25T20:45:42.465Z,22.44
2023-05-25T20:50:41.376Z,22.28
2023-05-25T20:55:41.547Z,22.19
2023-05-25T21:00:40.903Z,22.13
2023-05-25T21:05:39.748Z,22.17
2023-05-25T21:10:38.678Z,22.13
2023-05-25T21:15:38.859Z,21.77
2023-05-25T21:20:37.772Z,21.73
2023-05-25T21:25:37.385Z,21.75
2023-05-25T21:30:36.287Z,21.80
2023-05-25T21:35:36.445Z,21.85
2023-05-25T21:40:35.171Z,21.94
2023-05-25T21:45:33.951Z,22.04
2023-05-25T21:50:32.674Z,22.09
2023-05-25T21:55:34.375Z,22.20
2023-05-25T22:00:35.305Z,22.21
2023-05-25T22:05:35.377Z,22.25
2023-05-25T22:10:35.803Z,22.22
2023-05-25T22:15:35.442Z,22.16
2023-05-25T22:20:34.318Z,22.11
2023-05-25T22:25:33.167Z,22.01
2023-05-25T22:30:33.370Z,21.82
2023-05-25T22:35:32.138Z,21.76
2023-05-25T22:40:30.914Z,21.78
2023-05-25T22:45:29.635Z,21.79
2023-05-25T22:50:29.809Z,21.77
2023-05-25T22:55:28.555Z,21.74
2023-05-25T23:00:27.322Z,21.67
2023-05-25T23:05:26.030Z,21.62
2023-05-25T23:10:26.494Z,21.59
2023-05-25T23:15:25.187Z,21.52
2023-05-25T23:20:24.027Z,21.39
2023-05-25T23:25:22.945Z,21.32
2023-05-25T23:30:23.608Z,21.29
2023-05-25T23:35:23.125Z,20.99
2023-05-25T23:40:21.916Z,20.96
2023-05-25T23:45:22.259Z,20.93
2023-05-25T23:50:21.177Z,20.85
2023-05-25T23:55:20.043Z,20.67
